Time;durP1;ratioP1;P1;durP2;ratioP2;P2;SDS_P1;SDS_P2;PMS_P1;PMS_P2;Temp;Humidity;BMP_temperature;BMP_pressure;BME280_temperature;BME280_humidity;BME280_pressure;Samples;Min_cycle;Max_cycle;Signal;HPM_P1;HPM_P2
2023/07/22 00:02:03;;;;;;;2.80;2.70;;;15.90;99.90;;;;;;5107240;28;20213;-77
2023/07/22 00:04:30;;;;;;;2.87;2.70;;;15.90;99.90;;;;;;5106610;28;20674;-77
2023/07/22 00:06:57;;;;;;;2.93;2.73;;;15.90;99.90;;;;;;5124023;27;20240;-77
2023/07/22 00:09:25;;;;;;;3.00;2.80;;;15.80;99.90;;;;;;5127790;27;20218;-77
2023/07/22 00:11:52;;;;;;;2.90;2.80;;;15.90;99.90;;;;;;5127355;27;20943;-77
2023/07/22 00:14:19;;;;;;;3.00;2.80;;;15.90;99.90;;;;;;5127010;27;20205;-79
2023/07/22 00:16:46;;;;;;;3.20;3.00;;;15.90;99.90;;;;;;5126521;27;20668;-77
2023/07/22 00:19:14;;;;;;;3.10;2.90;;;15.90;99.90;;;;;;5128914;27;20205;-79
2023/07/22 00:21:40;;;;;;;3.30;3.10;;;15.90;99.90;;;;;;5127296;27;20202;-79
2023/07/22 00:24:08;;;;;;;2.87;2.77;;;15.80;99.90;;;;;;5106187;28;20325;-79
2023/07/22 00:26:36;;;;;;;3.27;3.07;;;15.60;99.90;;;;;;5106377;28;20198;-79
2023/07/22 00:29:04;;;;;;;4.00;3.57;;;15.60;99.90;;;;;;5106484;28;20297;-79
2023/07/22 00:31:31;;;;;;;3.60;3.23;;;15.60;99.90;;;;;;5107758;27;20221;-79
2023/07/22 00:34:01;;;;;;;2.90;2.80;;;15.50;99.90;;;;;;5106729;28;20252;-79
2023/07/22 00:36:28;;;;;;;3.40;3.00;;;15.50;99.90;;;;;;5107829;28;20293;-78
2023/07/22 00:38:55;;;;;;;3.70;3.50;;;15.40;99.90;;;;;;5126728;27;20311;-78
2023/07/22 00:41:22;;;;;;;3.57;3.27;;;15.50;99.90;;;;;;5125594;27;20205;-79
2023/07/22 00:43:51;;;;;;;5.43;3.73;;;15.50;99.90;;;;;;5106449;28;20566;-80
2023/07/22 00:46:18;;;;;;;4.33;4.03;;;15.50;99.90;;;;;;5108209;27;20241;-79
2023/07/22 00:48:45;;;;;;;3.87;3.53;;;15.40;99.90;;;;;;5127398;27;20289;-80
2023/07/22 00:51:12;;;;;;;4.50;4.10;;;15.40;99.90;;;;;;5117323;27;20283;-80
2023/07/22 00:53:39;;;;;;;4.33;3.63;;;15.40;99.90;;;;;;5106749;28;20273;-78
2023/07/22 00:56:06;;;;;;;4.17;3.77;;;15.40;99.90;;;;;;5106622;28;20696;-79
2023/07/22 00:58:34;;;;;;;4.13;3.80;;;15.40;99.90;;;;;;5106326;28;20326;-76
2023/07/22 01:01:02;;;;;;;8.13;4.10;;;15.40;99.90;;;;;;5106419;28;20213;-76
2023/07/22 01:03:29;;;;;;;4.20;3.90;;;15.40;99.90;;;;;;5106469;28;20322;-79
2023/07/22 01:05:58;;;;;;;4.80;4.30;;;15.40;99.90;;;;;;5106830;28;20333;-80
2023/07/22 01:08:25;;;;;;;6.47;4.37;;;15.30;99.90;;;;;;5106399;28;20205;-79
2023/07/22 01:10:52;;;;;;;4.43;4.03;;;15.30;99.90;;;;;;5106860;28;20202;-79
2023/07/22 01:13:19;;;;;;;5.60;4.67;;;15.30;99.90;;;;;;5105404;28;20234;-79
2023/07/22 01:15:48;;;;;;;6.23;4.87;;;15.30;99.90;;;;;;5106195;28;20212;-79
2023/07/22 01:18:17;;;;;;;5.07;4.40;;;15.30;99.90;;;;;;5105660;28;20873;-78
2023/07/22 01:20:44;;;;;;;4.57;4.17;;;15.30;99.90;;;;;;5106055;28;20281;-78
2023/07/22 01:23:12;;;;;;;5.83;4.50;;;15.30;99.90;;;;;;5105603;28;20634;-76
2023/07/22 01:25:40;;;;;;;6.53;4.47;;;15.30;99.90;;;;;;5105467;28;20198;-75
2023/07/22 01:28:11;;;;;;;5.17;4.40;;;15.30;99.90;;;;;;5106652;28;20542;-76
2023/07/22 01:30:38;;;;;;;5.33;4.83;;;15.30;99.90;;;;;;5109701;28;20201;-75
2023/07/22 01:33:05;;;;;;;5.27;4.47;;;15.40;99.90;;;;;;5114044;27;20249;-76
2023/07/22 01:35:32;;;;;;;6.40;4.37;;;15.50;99.90;;;;;;5129871;27;20329;-76
2023/07/22 01:37:58;;;;;;;4.53;4.10;;;15.40;99.90;;;;;;5110078;27;20296;-75
2023/07/22 01:40:28;;;;;;;8.37;4.40;;;15.50;99.90;;;;;;5109788;27;20296;-75
2023/07/22 01:42:55;;;;;;;5.03;4.40;;;15.50;99.90;;;;;;5109935;28;20264;-77
2023/07/22 01:45:22;;;;;;;5.17;4.67;;;15.30;99.90;;;;;;5109659;28;20206;-76
2023/07/22 01:47:49;;;;;;;5.90;4.80;;;15.20;99.90;;;;;;5119513;27;20197;-77
2023/07/22 01:50:16;;;;;;;5.47;4.97;;;15.20;99.90;;;;;;5146947;27;20223;-76
2023/07/22 01:52:43;;;;;;;5.17;4.53;;;15.20;99.90;;;;;;5133115;27;20256;-76
2023/07/22 01:55:10;;;;;;;5.70;5.20;;;15.10;99.90;;;;;;5129530;27;20284;-76
2023/07/22 01:57:40;;;;;;;5.80;5.30;;;15.10;99.90;;;;;;5129992;27;20204;-79
2023/07/22 02:00:10;;;;;;;5.37;4.50;;;15.10;99.90;;;;;;5089237;28;20229;-80
2023/07/22 02:02:37;;;;;;;6.43;4.33;;;15.10;99.90;;;;;;5088676;28;20249;-80
2023/07/22 02:05:06;;;;;;;4.40;4.10;;;15.10;99.90;;;;;;5076605;28;20253;-80
2023/07/22 02:07:33;;;;;;;5.27;4.10;;;15.00;99.90;;;;;;5068577;28;20298;-80
2023/07/22 02:09:59;;;;;;;5.03;4.20;;;14.90;99.90;;;;;;5068321;28;20246;-80
2023/07/22 02:12:26;;;;;;;4.20;3.80;;;14.90;99.90;;;;;;5068255;28;20342;-80
2023/07/22 02:14:55;;;;;;;4.07;3.77;;;14.90;99.90;;;;;;5068704;28;20206;-80
2023/07/22 02:17:23;;;;;;;4.50;3.67;;;14.90;99.90;;;;;;5068232;28;20219;-80
2023/07/22 02:19:50;;;;;;;4.17;3.93;;;14.80;99.90;;;;;;5077279;28;20203;-80
2023/07/22 02:22:17;;;;;;;4.87;4.30;;;14.80;99.90;;;;;;5068583;28;20297;-80
2023/07/22 02:24:44;;;;;;;4.73;3.97;;;14.70;99.90;;;;;;5068679;28;20623;-80
2023/07/22 02:27:11;;;;;;;3.87;3.67;;;14.70;99.90;;;;;;5068201;28;20269;-79
2023/07/22 02:29:38;;;;;;;4.60;4.30;;;14.60;99.90;;;;;;5075295;28;20209;-79
2023/07/22 02:32:08;;;;;;;4.07;3.87;;;14.60;99.90;;;;;;5088041;28;20238;-78
2023/07/22 02:34:35;;;;;;;6.83;3.90;;;14.70;99.90;;;;;;5088607;28;20203;-79
2023/07/22 02:37:01;;;;;;;6.13;4.10;;;14.70;99.90;;;;;;5073762;28;20658;-80
2023/07/22 02:39:28;;;;;;;4.37;3.97;;;14.70;99.90;;;;;;5067294;28;20285;-79
2023/07/22 02:41:55;;;;;;;3.97;3.77;;;14.70;99.90;;;;;;5068226;28;20213;-80
2023/07/22 02:44:22;;;;;;;4.50;4.10;;;14.70;99.90;;;;;;5068107;28;20242;-80
2023/07/22 02:46:49;;;;;;;4.77;3.80;;;14.70;99.90;;;;;;5083651;28;20238;-80
2023/07/22 02:49:17;;;;;;;5.30;3.60;;;14.80;99.90;;;;;;5081752;28;20215;-80
2023/07/22 02:51:44;;;;;;;3.63;3.43;;;14.80;99.90;;;;;;5067665;28;20223;-80
2023/07/22 02:54:11;;;;;;;7.93;4.00;;;14.70;99.90;;;;;;5067865;28;20637;-80
2023/07/22 02:56:38;;;;;;;4.17;3.67;;;14.70;99.90;;;;;;5068456;28;20287;-76
2023/07/22 02:59:05;;;;;;;4.00;3.80;;;14.60;99.90;;;;;;5091471;28;20768;-78
2023/07/22 03:01:32;;;;;;;6.83;3.90;;;14.70;99.90;;;;;;5107758;28;20838;-78
2023/07/22 03:03:59;;;;;;;4.70;4.30;;;14.70;99.90;;;;;;5107836;28;20275;-78
2023/07/22 03:06:28;;;;;;;4.57;4.20;;;14.70;99.90;;;;;;5107938;28;20302;-78
2023/07/22 03:08:57;;;;;;;4.33;4.07;;;14.70;99.90;;;;;;5108085;28;20213;-80
2023/07/22 03:11:26;;;;;;;4.83;3.90;;;14.70;99.90;;;;;;5107981;27;20213;-80
2023/07/22 03:13:53;;;;;;;5.30;3.67;;;14.70;99.90;;;;;;5115910;27;20211;-80
2023/07/22 03:16:21;;;;;;;4.03;3.53;;;14.70;99.90;;;;;;5128623;27;20254;-79
2023/07/22 03:18:48;;;;;;;4.60;3.73;;;14.70;99.90;;;;;;5123750;27;20673;-79
2023/07/22 03:21:15;;;;;;;4.10;3.70;;;14.70;99.90;;;;;;5107952;28;20747;-79
2023/07/22 03:23:43;;;;;;;3.87;3.47;;;14.80;99.90;;;;;;5107727;28;20206;-79
2023/07/22 03:26:10;;;;;;;4.63;4.20;;;14.70;99.90;;;;;;5117129;27;20571;-79
2023/07/22 03:28:37;;;;;;;4.73;4.13;;;14.70;99.90;;;;;;5123652;27;20205;-80
2023/07/22 03:31:04;;;;;;;3.83;3.63;;;14.70;99.90;;;;;;5111140;27;20201;-79
2023/07/22 03:33:31;;;;;;;4.20;3.87;;;14.70;99.90;;;;;;5107272;28;20229;-79
2023/07/22 03:35:58;;;;;;;6.33;3.40;;;14.70;99.90;;;;;;5107665;28;20214;-76
2023/07/22 03:38:25;;;;;;;6.03;3.87;;;14.70;99.90;;;;;;5107711;28;20212;-79
2023/07/22 03:40:53;;;;;;;6.87;4.07;;;14.60;99.90;;;;;;5107062;28;20229;-79
2023/07/22 03:43:20;;;;;;;4.03;3.70;;;14.60;99.90;;;;;;5110274;27;20206;-79
2023/07/22 03:45:47;;;;;;;4.03;3.57;;;14.60;99.90;;;;;;5127963;27;20343;-79
2023/07/22 03:48:14;;;;;;;3.50;3.20;;;14.50;99.90;;;;;;5127941;27;20304;-79
2023/07/22 03:50:41;;;;;;;3.83;3.63;;;14.50;99.90;;;;;;5127618;27;20209;-79
2023/07/22 03:53:08;;;;;;;4.80;3.67;;;14.50;99.90;;;;;;5119944;27;20230;-79
2023/07/22 03:55:35;;;;;;;4.43;3.53;;;14.50;99.90;;;;;;5107530;28;20300;-79
2023/07/22 03:58:03;;;;;;;3.73;3.43;;;14.50;99.90;;;;;;5106691;28;20252;-77
2023/07/22 04:00:31;;;;;;;3.67;3.47;;;14.50;99.90;;;;;;5107137;28;20873;-76
2023/07/22 04:02:57;;;;;;;3.37;3.10;;;14.40;99.90;;;;;;5107614;27;20214;-78
2023/07/22 04:05:24;;;;;;;3.37;3.07;;;14.50;99.90;;;;;;5106861;28;20210;-78
2023/07/22 04:07:51;;;;;;;3.73;3.40;;;14.40;99.90;;;;;;5107265;28;20514;-81
2023/07/22 04:10:18;;;;;;;3.80;3.47;;;14.40;99.90;;;;;;5108824;28;20308;-78
2023/07/22 04:12:45;;;;;;;3.53;3.20;;;14.40;99.90;;;;;;5108736;28;20225;-78
2023/07/22 04:15:15;;;;;;;3.57;3.30;;;14.40;99.90;;;;;;5107190;28;20275;-77
2023/07/22 04:17:41;;;;;;;4.50;3.40;;;14.40;99.90;;;;;;5107308;28;20785;-78
2023/07/22 04:20:09;;;;;;;3.40;3.10;;;14.40;99.90;;;;;;5123354;27;20736;-78
2023/07/22 04:22:36;;;;;;;3.37;3.00;;;14.40;99.90;;;;;;5127279;27;20244;-79
2023/07/22 04:25:04;;;;;;;3.13;2.80;;;14.40;99.90;;;;;;5120906;27;20293;-78
2023/07/22 04:27:31;;;;;;;3.93;3.23;;;14.40;99.90;;;;;;5106772;28;20568;-77
2023/07/22 04:29:58;;;;;;;3.00;2.90;;;14.30;99.90;;;;;;5106336;28;20297;-78
2023/07/22 04:32:26;;;;;;;3.37;3.17;;;14.40;99.90;;;;;;5106763;28;20381;-78
2023/07/22 04:34:53;;;;;;;3.30;3.00;;;14.40;99.90;;;;;;5106705;28;20206;-78
2023/07/22 04:37:20;;;;;;;3.50;3.27;;;14.50;99.90;;;;;;5106245;28;20216;-78
2023/07/22 04:39:49;;;;;;;4.30;2.77;;;14.50;99.90;;;;;;5123485;27;20205;-78
2023/07/22 04:42:17;;;;;;;3.40;3.20;;;14.50;99.90;;;;;;5126683;27;20686;-78
2023/07/22 04:44:44;;;;;;;3.97;2.87;;;14.50;99.90;;;;;;5126673;27;20201;-78
2023/07/22 04:47:11;;;;;;;5.60;3.30;;;14.60;99.90;;;;;;5126529;27;20197;-78
2023/07/22 04:49:40;;;;;;;3.40;3.07;;;14.70;99.90;;;;;;5137980;27;20208;-78
2023/07/22 04:52:08;;;;;;;3.30;3.00;;;14.60;99.90;;;;;;5147254;27;20323;-78
2023/07/22 04:54:35;;;;;;;4.07;3.43;;;14.70;99.90;;;;;;5133513;27;20205;-81
2023/07/22 04:57:02;;;;;;;3.17;2.97;;;14.70;99.90;;;;;;5125562;27;20304;-79
2023/07/22 04:59:29;;;;;;;3.97;3.47;;;14.60;99.90;;;;;;5105819;28;20241;-80
2023/07/22 05:01:56;;;;;;;3.80;3.50;;;14.60;99.90;;;;;;5105775;28;20296;-80
2023/07/22 05:04:24;;;;;;;4.47;4.07;;;14.50;99.90;;;;;;5105366;28;20237;-75
2023/07/22 05:06:52;;;;;;;4.30;4.00;;;14.60;99.90;;;;;;5118203;27;20585;-77
2023/07/22 05:09:19;;;;;;;4.47;4.10;;;14.60;99.90;;;;;;5126882;28;20209;-76
2023/07/22 05:11:45;;;;;;;5.80;4.40;;;14.50;99.90;;;;;;5126418;28;20212;-75
2023/07/22 05:14:12;;;;;;;8.57;4.93;;;14.50;99.90;;;;;;5107410;28;20230;-75
2023/07/22 05:16:39;;;;;;;6.03;4.73;;;14.40;99.90;;;;;;5105448;28;20198;-76
2023/07/22 05:19:08;;;;;;;6.50;5.00;;;14.50;99.90;;;;;;5119420;27;20208;-76
2023/07/22 05:21:34;;;;;;;6.03;5.37;;;14.60;99.90;;;;;;5138526;27;20205;-75
2023/07/22 05:24:03;;;;;;;5.60;5.17;;;14.60;99.90;;;;;;5126319;28;20300;-75
2023/07/22 05:26:30;;;;;;;8.90;5.53;;;14.60;99.90;;;;;;5126111;28;20236;-75
2023/07/22 05:28:57;;;;;;;7.07;5.80;;;14.60;99.90;;;;;;5125764;28;20209;-76
2023/07/22 05:31:24;;;;;;;6.13;5.53;;;14.60;99.90;;;;;;5126250;28;20687;-75
2023/07/22 05:33:51;;;;;;;6.23;5.70;;;14.60;99.90;;;;;;5125481;28;20672;-75
2023/07/22 05:36:18;;;;;;;7.17;6.47;;;14.60;99.90;;;;;;5126343;28;20301;-75
2023/07/22 05:38:45;;;;;;;6.93;6.23;;;14.60;99.90;;;;;;5125966;27;20246;-75
2023/07/22 05:41:13;;;;;;;7.53;6.47;;;14.60;99.90;;;;;;5126480;28;20206;-75
2023/07/22 05:43:40;;;;;;;7.07;6.47;;;14.70;99.90;;;;;;5126115;28;20209;-75
2023/07/22 05:46:07;;;;;;;7.77;6.90;;;14.70;99.90;;;;;;5126010;28;20205;-75
2023/07/22 05:48:34;;;;;;;7.10;6.40;;;14.70;99.90;;;;;;5126351;27;20300;-75
2023/07/22 05:51:01;;;;;;;7.57;6.90;;;14.70;99.90;;;;;;5118133;28;20383;-75
2023/07/22 05:53:28;;;;;;;7.53;6.77;;;14.80;99.90;;;;;;5125237;28;20666;-79
2023/07/22 05:55:55;;;;;;;7.30;6.60;;;14.80;99.90;;;;;;5115373;28;20551;-80
2023/07/22 05:58:22;;;;;;;7.23;6.53;;;14.90;99.90;;;;;;5105654;28;20648;-80
2023/07/22 06:00:51;;;;;;;7.60;6.90;;;14.90;99.90;;;;;;5105622;28;20202;-80
2023/07/22 06:03:18;;;;;;;7.57;6.73;;;14.90;99.90;;;;;;5105780;28;20660;-81
2023/07/22 06:05:45;;;;;;;8.57;6.97;;;14.90;99.90;;;;;;5113114;28;20281;-80
2023/07/22 06:08:12;;;;;;;7.77;6.87;;;14.90;99.90;;;;;;5121960;28;20624;-76
2023/07/22 06:10:39;;;;;;;7.37;6.50;;;14.90;99.90;;;;;;5125435;28;20703;-75
2023/07/22 06:13:06;;;;;;;9.97;6.27;;;14.90;99.90;;;;;;5125211;28;20701;-75
2023/07/22 06:15:34;;;;;;;7.00;6.40;;;14.90;99.90;;;;;;5127880;27;20205;-76
2023/07/22 06:18:01;;;;;;;8.77;6.27;;;15.00;99.90;;;;;;5119846;27;20224;-76
2023/07/22 06:20:29;;;;;;;6.87;6.17;;;15.00;99.90;;;;;;5109612;27;20206;-79
2023/07/22 06:22:56;;;;;;;6.07;5.43;;;15.00;99.90;;;;;;5109345;28;20225;-79
2023/07/22 06:25:23;;;;;;;10.67;6.37;;;15.10;99.90;;;;;;5109503;28;20206;-79
2023/07/22 06:27:49;;;;;;;6.67;5.80;;;15.10;99.90;;;;;;5109391;28;20220;-79
2023/07/22 06:30:17;;;;;;;6.33;5.73;;;15.20;99.90;;;;;;5108940;28;20711;-80
2023/07/22 06:32:45;;;;;;;7.27;5.90;;;15.30;99.90;;;;;;5115697;27;20236;-79
2023/07/22 06:35:13;;;;;;;7.90;5.53;;;15.30;99.90;;;;;;5128662;27;20267;-80
2023/07/22 06:37:40;;;;;;;6.33;5.40;;;15.40;99.90;;;;;;5116374;27;20234;-76
2023/07/22 06:40:08;;;;;;;6.10;5.60;;;15.40;99.90;;;;;;5108616;28;20255;-76
2023/07/22 06:42:35;;;;;;;5.47;4.97;;;15.50;99.90;;;;;;5109144;28;20213;-76
2023/07/22 06:45:01;;;;;;;7.60;4.60;;;15.50;99.90;;;;;;5109550;28;20297;-76
2023/07/22 06:47:28;;;;;;;5.13;4.47;;;15.50;99.90;;;;;;5109603;28;20206;-76
2023/07/22 06:49:57;;;;;;;6.53;4.63;;;15.60;99.90;;;;;;5122367;27;20208;-76
2023/07/22 06:52:23;;;;;;;4.50;4.10;;;15.60;99.90;;;;;;5109518;27;20906;-76
2023/07/22 06:54:50;;;;;;;5.47;4.73;;;15.70;99.90;;;;;;5108625;28;20306;-76
2023/07/22 06:57:17;;;;;;;6.03;4.10;;;15.70;99.90;;;;;;5109288;28;20294;-76
2023/07/22 06:59:44;;;;;;;5.97;4.20;;;15.80;99.90;;;;;;5123334;27;20606;-76
2023/07/22 07:02:11;;;;;;;9.40;4.77;;;15.80;99.90;;;;;;5129063;27;20205;-79
2023/07/22 07:04:38;;;;;;;6.70;4.60;;;15.80;99.90;;;;;;5129232;27;20292;-78
2023/07/22 07:07:07;;;;;;;5.47;4.17;;;15.90;99.90;;;;;;5128960;27;20288;-75
2023/07/22 07:09:33;;;;;;;5.07;4.40;;;15.90;99.90;;;;;;5128737;27;20220;-80
2023/07/22 07:12:00;;;;;;;6.57;4.50;;;16.00;99.90;;;;;;5128602;27;20198;-80
2023/07/22 07:14:27;;;;;;;7.23;4.37;;;15.90;99.90;;;;;;5116209;27;20321;-77
2023/07/22 07:16:54;;;;;;;7.80;4.57;;;16.00;99.90;;;;;;5107881;28;20699;-77
2023/07/22 07:19:21;;;;;;;5.00;4.50;;;16.00;99.90;;;;;;5107692;28;20753;-77
2023/07/22 07:21:49;;;;;;;5.67;4.23;;;16.00;99.90;;;;;;5107505;28;20225;-77
2023/07/22 07:24:18;;;;;;;6.97;4.50;;;16.10;99.90;;;;;;5108044;28;20210;-78
2023/07/22 07:26:44;;;;;;;7.87;4.67;;;16.10;99.90;;;;;;5107793;28;20285;-78
2023/07/22 07:29:11;;;;;;;5.03;3.80;;;16.20;99.90;;;;;;5116650;27;20248;-78
2023/07/22 07:31:38;;;;;;;4.53;4.00;;;16.30;99.90;;;;;;5127493;27;20288;-76
2023/07/22 07:34:05;;;;;;;6.03;4.37;;;16.40;99.90;;;;;;5127894;27;20928;-78
2023/07/22 07:36:32;;;;;;;7.03;4.33;;;16.40;99.90;;;;;;5128041;27;20293;-78
2023/07/22 07:38:59;;;;;;;9.13;4.20;;;16.50;99.90;;;;;;5127786;27;20444;-77
2023/07/22 07:41:28;;;;;;;4.50;4.07;;;16.60;99.90;;;;;;5128333;27;20622;-78
2023/07/22 07:43:55;;;;;;;6.17;4.10;;;16.60;99.90;;;;;;5128297;27;20227;-78
2023/07/22 07:46:23;;;;;;;5.43;4.50;;;16.60;99.90;;;;;;5128012;27;20747;-73
2023/07/22 07:48:51;;;;;;;8.03;4.50;;;16.60;99.90;;;;;;5123241;27;20867;-77
2023/07/22 07:51:19;;;;;;;7.70;4.53;;;16.60;99.90;;;;;;5107170;27;20760;-77
2023/07/22 07:53:47;;;;;;;5.20;4.70;;;16.60;99.90;;;;;;5107032;28;20236;-77
2023/07/22 07:56:15;;;;;;;6.63;4.30;;;16.70;99.90;;;;;;5124480;27;20212;-77
2023/07/22 07:58:44;;;;;;;6.43;4.37;;;16.80;99.90;;;;;;5127220;27;20233;-77
2023/07/22 08:01:11;;;;;;;5.93;4.63;;;16.80;99.90;;;;;;5127152;27;20284;-77
2023/07/22 08:03:39;;;;;;;4.60;4.20;;;16.90;99.90;;;;;;5127519;27;20216;-77
2023/07/22 08:06:07;;;;;;;10.27;4.37;;;16.90;99.90;;;;;;5126977;27;20300;-77
2023/07/22 08:08:34;;;;;;;5.90;4.70;;;17.00;99.90;;;;;;5125562;27;20232;-74
2023/07/22 08:11:02;;;;;;;7.47;4.60;;;17.00;99.90;;;;;;5126746;27;21001;-75
2023/07/22 08:13:30;;;;;;;8.10;4.60;;;17.00;99.90;;;;;;5126792;27;20320;-76
2023/07/22 08:15:59;;;;;;;6.93;4.37;;;17.00;99.90;;;;;;5126794;27;20213;-74
2023/07/22 08:18:26;;;;;;;5.63;4.47;;;17.00;99.90;;;;;;5127049;27;20850;-76
2023/07/22 08:20:53;;;;;;;5.93;4.40;;;17.10;99.90;;;;;;5126378;27;20292;-77
2023/07/22 08:23:20;;;;;;;8.47;5.90;;;17.30;99.90;;;;;;5120439;27;20567;-75
2023/07/22 08:25:48;;;;;;;6.70;5.63;;;17.40;99.90;;;;;;5117179;27;20674;-75
2023/07/22 08:28:15;;;;;;;6.23;4.53;;;17.40;99.90;;;;;;5126039;27;20213;-76
2023/07/22 08:30:42;;;;;;;6.13;4.43;;;17.20;99.90;;;;;;5113689;27;20218;-76
2023/07/22 08:33:11;;;;;;;4.53;3.90;;;17.20;99.90;;;;;;5122916;27;20201;-76
2023/07/22 08:35:38;;;;;;;5.17;4.10;;;17.10;99.90;;;;;;5115020;27;20218;-76
2023/07/22 08:38:05;;;;;;;4.60;4.10;;;17.20;99.90;;;;;;5105246;28;20301;-76
2023/07/22 08:40:35;;;;;;;4.53;4.13;;;17.20;99.90;;;;;;5105787;28;20289;-77
2023/07/22 08:43:04;;;;;;;4.47;4.17;;;17.30;99.90;;;;;;5105775;28;20559;-75
2023/07/22 08:45:34;;;;;;;4.50;4.00;;;17.40;99.90;;;;;;5105959;28;20222;-78
2023/07/22 08:48:06;;;;;;;4.80;4.37;;;17.40;99.90;;;;;;5106163;28;20725;-78
2023/07/22 08:50:42;;;;;;;4.70;4.17;;;17.50;99.90;;;;;;5106295;27;20237;-69
2023/07/22 08:53:09;;;;;;;4.57;3.70;;;17.50;99.90;;;;;;5126223;27;20587;-78
2023/07/22 08:55:36;;;;;;;4.13;3.77;;;17.60;99.90;;;;;;5122055;27;20199;-82
2023/07/22 08:58:05;;;;;;;4.27;3.90;;;17.80;99.90;;;;;;5115769;27;20317;-80
2023/07/22 09:00:32;;;;;;;3.30;3.10;;;17.80;99.90;;;;;;5125065;27;20390;-81
2023/07/22 09:03:00;;;;;;;3.63;3.30;;;17.80;99.90;;;;;;5124990;27;20320;-82
2023/07/22 09:05:27;;;;;;;6.30;4.10;;;17.90;99.90;;;;;;5124884;27;20621;-80
2023/07/22 09:07:56;;;;;;;5.00;4.00;;;18.10;99.90;;;;;;5109272;27;20210;-81
2023/07/22 09:10:25;;;;;;;4.43;3.83;;;18.00;99.90;;;;;;5104418;28;20209;-80
2023/07/22 09:12:52;;;;;;;4.63;4.00;;;18.20;99.90;;;;;;5104164;28;20316;-81
2023/07/22 09:15:19;;;;;;;4.20;3.90;;;18.30;99.90;;;;;;5103728;28;20240;-82
2023/07/22 09:17:47;;;;;;;5.67;3.90;;;18.40;99.90;;;;;;5103949;28;20263;-80
2023/07/22 09:20:15;;;;;;;3.37;3.07;;;18.30;99.90;;;;;;5120403;27;20292;-81
2023/07/22 09:22:45;;;;;;;6.13;3.30;;;18.20;99.90;;;;;;5141409;27;20685;-81
2023/07/22 09:25:18;;;;;;;4.10;3.40;;;18.40;99.90;;;;;;5145557;27;20209;-82
2023/07/22 09:27:45;;;;;;;3.40;3.10;;;18.50;99.90;;;;;;5117345;27;20741;-82
2023/07/22 09:30:26;;;;;;;5.27;3.83;;;18.60;99.90;;;;;;5104381;28;20554;-82
2023/07/22 09:32:54;;;;;;;3.27;3.07;;;18.50;99.90;;;;;;5104501;28;20209;-81
2023/07/22 09:35:22;;;;;;;3.73;3.43;;;18.50;99.90;;;;;;5103689;28;20903;-81
2023/07/22 09:37:49;;;;;;;3.37;3.07;;;18.50;99.90;;;;;;5103990;28;20734;-82
2023/07/22 09:40:20;;;;;;;3.37;3.07;;;18.60;99.90;;;;;;5104002;28;20206;-82
2023/07/22 09:42:48;;;;;;;3.23;2.97;;;18.70;99.90;;;;;;5104214;28;20213;-83
2023/07/22 09:45:15;;;;;;;4.47;2.90;;;18.70;99.90;;;;;;5104430;28;20305;-81
2023/07/22 09:47:42;;;;;;;3.00;2.80;;;18.70;99.90;;;;;;5112706;28;20285;-82
2023/07/22 09:50:12;;;;;;;2.90;2.60;;;18.70;99.90;;;;;;5126111;27;20229;-81
2023/07/22 09:52:46;;;;;;;3.60;3.30;;;18.80;99.90;;;;;;5108597;28;20578;-81
2023/07/22 09:55:13;;;;;;;3.87;3.37;;;19.00;99.90;;;;;;5119145;27;20883;-81
2023/07/22 09:57:45;;;;;;;3.40;3.20;;;19.00;99.90;;;;;;5127940;27;20936;-80
2023/07/22 10:00:14;;;;;;;3.27;3.00;;;19.10;99.90;;;;;;5127961;27;20569;-81
2023/07/22 10:02:42;;;;;;;4.80;3.00;;;19.10;99.90;;;;;;5122008;27;20238;-80
2023/07/22 10:05:16;;;;;;;4.50;4.10;;;19.20;99.90;;;;;;5125042;27;20689;-81
2023/07/22 10:07:49;;;;;;;4.93;4.40;;;19.20;99.90;;;;;;5127801;27;20286;-81
2023/07/22 10:10:17;;;;;;;3.20;2.93;;;19.30;99.90;;;;;;5127739;27;20288;-81
2023/07/22 10:12:46;;;;;;;3.63;3.33;;;19.50;99.90;;;;;;5128284;27;20201;-81
2023/07/22 10:15:14;;;;;;;3.23;2.93;;;19.60;99.90;;;;;;5128039;27;20241;-81
2023/07/22 10:17:42;;;;;;;3.27;2.97;;;19.70;99.90;;;;;;5122294;27;20216;-81
2023/07/22 10:20:14;;;;;;;3.93;3.00;;;19.60;99.90;;;;;;5123398;27;20305;-81
2023/07/22 10:22:42;;;;;;;3.97;3.10;;;19.60;99.90;;;;;;5128659;27;20239;-80
2023/07/22 10:25:11;;;;;;;3.90;3.10;;;19.80;99.90;;;;;;5128197;27;20215;-81
2023/07/22 10:27:39;;;;;;;3.90;3.30;;;19.80;99.90;;;;;;5127172;27;20656;-82
2023/07/22 10:30:09;;;;;;;3.43;3.10;;;19.90;99.90;;;;;;5127603;27;20205;-82
2023/07/22 10:32:37;;;;;;;3.30;3.10;;;19.90;99.90;;;;;;5128054;27;20209;-82
2023/07/22 10:35:05;;;;;;;3.10;2.90;;;19.80;99.90;;;;;;5127357;27;20703;-81
2023/07/22 10:37:33;;;;;;;4.10;2.70;;;19.80;99.90;;;;;;5127793;27;20212;-81
2023/07/22 10:40:02;;;;;;;3.17;2.63;;;19.70;99.90;;;;;;5127477;27;20209;-82
2023/07/22 10:42:32;;;;;;;4.47;3.10;;;19.50;99.90;;;;;;5127455;27;20212;-81
2023/07/22 10:45:01;;;;;;;3.90;3.13;;;19.60;99.90;;;;;;5127653;27;20726;-81
2023/07/22 10:47:37;;;;;;;3.67;3.27;;;19.80;99.90;;;;;;5120188;27;20660;-81
2023/07/22 10:50:09;;;;;;;3.40;3.10;;;20.00;99.90;;;;;;5106181;28;20222;-81
2023/07/22 10:52:42;;;;;;;3.83;3.20;;;19.90;99.90;;;;;;5106849;28;20676;-80
2023/07/22 10:55:17;;;;;;;3.77;3.50;;;19.80;99.90;;;;;;5106882;28;20237;-82
2023/07/22 10:57:52;;;;;;;4.57;3.30;;;19.70;99.90;;;;;;5110839;27;20197;-81
2023/07/22 11:00:21;;;;;;;4.63;3.00;;;19.60;99.90;;;;;;5125157;27;20935;-82
2023/07/22 11:03:10;;;;;;;4.07;3.30;;;19.50;99.90;;;;;;5126680;27;20197;-82
2023/07/22 11:05:55;;;;;;;4.57;3.10;;;19.50;99.90;;;;;;5108656;27;20210;-81
2023/07/22 11:08:38;;;;;;;3.40;3.20;;;19.50;99.90;;;;;;5107473;28;20197;-80
2023/07/22 11:11:05;;;;;;;4.17;3.60;;;19.70;99.90;;;;;;5106861;28;20205;-81
2023/07/22 11:13:39;;;;;;;3.93;3.63;;;19.90;99.90;;;;;;5126089;27;20198;-81
2023/07/22 11:16:10;;;;;;;4.20;3.90;;;20.30;99.90;;;;;;5129053;27;20221;-81
2023/07/22 11:18:39;;;;;;;3.97;3.67;;;20.60;99.90;;;;;;5124446;27;20198;-81
2023/07/22 11:21:10;;;;;;;4.13;3.83;;;20.70;99.90;;;;;;5122934;27;20711;-80
2023/07/22 11:23:36;;;;;;;4.20;3.90;;;20.70;99.90;;;;;;5130262;27;20280;-80
2023/07/22 11:26:04;;;;;;;3.90;3.60;;;20.80;99.90;;;;;;5129613;27;20685;-81
2023/07/22 11:28:31;;;;;;;4.10;3.80;;;21.00;99.90;;;;;;5143205;27;20304;-81
2023/07/22 11:31:00;;;;;;;4.40;3.97;;;21.10;99.90;;;;;;5149692;27;20201;-81
2023/07/22 11:33:38;;;;;;;3.50;3.30;;;21.10;99.90;;;;;;5149745;27;20213;-81
2023/07/22 11:36:06;;;;;;;5.27;4.00;;;21.10;99.90;;;;;;5130669;27;20218;-81
2023/07/22 11:38:34;;;;;;;4.10;3.70;;;20.90;99.90;;;;;;5115461;27;20202;-80
2023/07/22 11:41:01;;;;;;;5.37;3.33;;;21.10;99.90;;;;;;5120361;27;20227;-81
2023/07/22 11:43:28;;;;;;;3.63;3.43;;;21.40;99.90;;;;;;5114187;27;20296;-82
2023/07/22 11:45:55;;;;;;;4.10;3.80;;;21.60;99.90;;;;;;5122226;27;20210;-82
2023/07/22 11:48:22;;;;;;;4.10;3.80;;;21.90;99.90;;;;;;5116397;27;20202;-81
2023/07/22 11:50:49;;;;;;;6.00;3.90;;;21.80;99.70;;;;;;5117285;27;20324;-82
2023/07/22 11:53:17;;;;;;;3.90;3.60;;;21.60;99.40;;;;;;5118290;27;20204;-81
2023/07/22 11:55:45;;;;;;;4.13;3.73;;;21.60;99.90;;;;;;5127929;27;20240;-81
2023/07/22 11:58:12;;;;;;;3.50;3.30;;;21.70;99.90;;;;;;5121843;27;20233;-81
2023/07/22 12:00:43;;;;;;;3.70;3.50;;;21.60;99.80;;;;;;5116658;27;20554;-82
2023/07/22 12:03:10;;;;;;;3.97;3.67;;;21.70;99.70;;;;;;5127337;27;20280;-81
2023/07/22 12:05:38;;;;;;;3.90;3.60;;;21.70;98.90;;;;;;5115890;27;20308;-82
2023/07/22 12:08:06;;;;;;;4.43;3.80;;;21.80;99.00;;;;;;5123274;27;20678;-83
2023/07/22 12:10:34;;;;;;;4.33;4.03;;;21.90;99.40;;;;;;5120731;27;20228;-82
2023/07/22 12:13:03;;;;;;;3.88;3.67;;;22.00;99.30;;;;;;5120065;27;20206;-82
2023/07/22 12:15:30;;;;;;;4.40;4.03;;;22.00;99.10;;;;;;5121184;27;20229;-82
2023/07/22 12:17:59;;;;;;;4.07;3.77;;;22.10;99.50;;;;;;5119657;27;20199;-82
2023/07/22 12:20:28;;;;;;;4.13;3.30;;;22.10;99.00;;;;;;5119738;27;20208;-82
2023/07/22 12:22:55;;;;;;;3.97;3.70;;;21.90;99.30;;;;;;5116372;27;20198;-82
2023/07/22 12:25:22;;;;;;;4.50;4.20;;;21.60;99.50;;;;;;5117408;27;20201;-82
2023/07/22 12:27:51;;;;;;;5.17;4.33;;;21.30;99.90;;;;;;5122608;27;20199;-82
2023/07/22 12:30:18;;;;;;;4.93;4.53;;;21.20;99.90;;;;;;5117526;27;20289;-82
2023/07/22 12:32:45;;;;;;;4.83;4.33;;;21.00;99.90;;;;;;5115874;27;20202;-82
2023/07/22 12:35:13;;;;;;;6.03;5.53;;;21.10;99.90;;;;;;5116030;27;20838;-82
2023/07/22 12:37:40;;;;;;;6.15;5.65;;;21.40;99.90;;;;;;5123243;27;20233;-82
2023/07/22 12:40:08;;;;;;;4.67;4.27;;;21.60;99.90;;;;;;5121917;27;20819;-83
2023/07/22 12:42:35;;;;;;;4.60;4.30;;;22.00;99.90;;;;;;5136705;27;20273;-84
2023/07/22 12:45:04;;;;;;;5.38;4.20;;;22.30;99.90;;;;;;5126421;27;20288;-81
2023/07/22 12:47:31;;;;;;;4.45;4.15;;;22.30;99.40;;;;;;5124093;27;20301;-81
2023/07/22 12:49:58;;;;;;;4.50;4.10;;;22.10;99.10;;;;;;5121578;27;20768;-81
2023/07/22 12:52:25;;;;;;;4.30;3.90;;;22.10;99.20;;;;;;5114813;27;20197;-80